AQQ10 IFIS: Internet Flight Information System
logo dgac
Viernes 18 de Junio del 2021

Metar

Buscar por aerodromo o helipuerto
Ingrese nombre de aeródromo, localidad o designador OACI:


METAR del 18-06-2021 a las 21:00 UTC
Para mayor información visite www.meteochile.cl
METAR SCRM 182100Z 02017KT 9999 OVC020 M05/M06 Q1002 NOSIG
Viento: dirección 020 grados, velocidad 17 nudos
Visibilidad: 10 km o más
Nubes: Cubierto a 2000 pies sobre el nivel del aeródromo
Temperatura: -5 °C
Rocío: -6 °C
Humedad_relativa: 93%
Presión: 1002 hPa
No se esperan cambios significativos en las próximas 2 horas
METAR del 18-06-2021 a las 21:00 UTC
Para mayor información visite www.meteochile.cl
METAR SCIP 182100Z 14012KT 090V190 9999 BKN025 19/13 Q1024 NOSIG
Viento: dirección 140 grados, velocidad 12 nudos
Viento con dirección variable entre 090 y 190 grados
Visibilidad: 10 km o más
Nubes: Nublado a 2500 pies sobre el nivel del aeródromo
Temperatura: 19 °C
Rocío: 13 °C
Humedad_relativa: 68%
Presión: 1024 hPa
No se esperan cambios significativos en las próximas 2 horas
METAR del 18-06-2021 a las 21:00 UTC
Para mayor información visite www.meteochile.cl
METAR SCDA 182100Z 21016KT CAVOK 18/12 Q1016
Viento: dirección 210 grados, velocidad 16 nudos
Visibilidad: 10 km o más,
    sin nubes bajo los 5.000 pies o bajo del MSA (Mínimo de Seguridad del Aeródromo),
    sin cumulonimbus, y sin fenómenos de tiempo significativo en el aeródromo o alrededores
Temperatura: 18 °C
Rocío: 12 °C
Humedad_relativa: 68%
Presión: 1016 hPa
METAR del 18-06-2021 a las 21:00 UTC
Para mayor información visite www.meteochile.cl
METAR SCMK 182100Z 03008KT CAVOK 08/04 Q1019
Viento: dirección 030 grados, velocidad 8 nudos
Visibilidad: 10 km o más,
    sin nubes bajo los 5.000 pies o bajo del MSA (Mínimo de Seguridad del Aeródromo),
    sin cumulonimbus, y sin fenómenos de tiempo significativo en el aeródromo o alrededores
Temperatura: 8 °C
Rocío: 4 °C
Humedad_relativa: 76%
Presión: 1019 hPa
METAR del 18-06-2021 a las 21:00 UTC
Para mayor información visite www.meteochile.cl
METAR SCRD 182100Z 32004KT 5000 HZ BKN008 11/10 Q1021
Viento: dirección 320 grados, velocidad 4 nudos
Visibilidad: 5000 metros
Bruma
Nubes: Nublado a 800 pies sobre el nivel del aeródromo
Temperatura: 11 °C
Rocío: 10 °C
Humedad_relativa: 94%
Presión: 1021 hPa
METAR del 18-06-2021 a las 21:00 UTC
Para mayor información visite www.meteochile.cl
METAR SCVD 182100Z VRB02KT CAVOK 09/05 Q1019
Viento: dirección variable, velocidad 2 nudos
Visibilidad: 10 km o más,
    sin nubes bajo los 5.000 pies o bajo del MSA (Mínimo de Seguridad del Aeródromo),
    sin cumulonimbus, y sin fenómenos de tiempo significativo en el aeródromo o alrededores
Temperatura: 9 °C
Rocío: 5 °C
Humedad_relativa: 76%
Presión: 1019 hPa
METAR del 18-06-2021 a las 21:00 UTC
Para mayor información visite www.meteochile.cl
METAR SCAT 182100Z 21007KT CAVOK 16/08 Q1019
Viento: dirección 210 grados, velocidad 7 nudos
Visibilidad: 10 km o más,
    sin nubes bajo los 5.000 pies o bajo del MSA (Mínimo de Seguridad del Aeródromo),
    sin cumulonimbus, y sin fenómenos de tiempo significativo en el aeródromo o alrededores
Temperatura: 16 °C
Rocío: 8 °C
Humedad_relativa: 59%
Presión: 1019 hPa
METAR del 18-06-2021 a las 21:00 UTC
Para mayor información visite www.meteochile.cl
METAR SCTB 182100Z 24004KT 4000 HZ BKN100 15/06 Q1020
Viento: dirección 240 grados, velocidad 4 nudos
Visibilidad: 4000 metros
Bruma
Nubes: Nublado a 10000 pies sobre el nivel del aeródromo
Temperatura: 15 °C
Rocío: 6 °C
Humedad_relativa: 55%
Presión: 1020 hPa
METAR del 18-06-2021 a las 20:00 UTC
Para mayor información visite www.meteochile.cl
METAR SCRM 182000Z 02016KT 9999 FEW008 OVC025 M06/M07 Q1002 NOSIG
Viento: dirección 020 grados, velocidad 16 nudos
Visibilidad: 10 km o más
Nubes: Escasa nubosidad a 800 pies sobre el nivel del aeródromo
Nubes: Cubierto a 2500 pies sobre el nivel del aeródromo
Temperatura: -6 °C
Rocío: -7 °C
Humedad_relativa: 93%
Presión: 1002 hPa
No se esperan cambios significativos en las próximas 2 horas
METAR del 18-06-2021 a las 20:00 UTC
Para mayor información visite www.meteochile.cl
METAR SCMK 182000Z 02008KT CAVOK 10/04 Q1019
Viento: dirección 020 grados, velocidad 8 nudos
Visibilidad: 10 km o más,
    sin nubes bajo los 5.000 pies o bajo del MSA (Mínimo de Seguridad del Aeródromo),
    sin cumulonimbus, y sin fenómenos de tiempo significativo en el aeródromo o alrededores
Temperatura: 10 °C
Rocío: 4 °C
Humedad_relativa: 66%
Presión: 1019 hPa